Time;durP1;ratioP1;P1;durP2;ratioP2;P2;SDS_P1;SDS_P2;PMS_P1;PMS_P2;Temp;Humidity;BMP_temperature;BMP_pressure;BME280_temperature;BME280_humidity;BME280_pressure;Samples;Min_cycle;Max_cycle;Signal;HPM_P1;HPM_P2
2022/08/02 03:16:23;;;;;;;14.67;13.97;;;18.10;99.90;;;;;;5601747;23;20494;-69
2022/08/02 03:18:50;;;;;;;13.50;12.70;;;18.10;99.90;;;;;;4908676;29;20491;-69
2022/08/02 03:21:17;;;;;;;14.23;13.53;;;18.10;99.90;;;;;;4902515;29;20462;-69
2022/08/02 03:23:43;;;;;;;15.13;14.33;;;18.10;99.90;;;;;;4896001;29;20550;-69
2022/08/02 03:26:10;;;;;;;15.47;14.77;;;18.10;99.90;;;;;;4904233;29;20948;-69
2022/08/02 03:28:37;;;;;;;14.90;14.20;;;18.10;99.90;;;;;;4914988;29;20466;-69
2022/08/02 03:31:04;;;;;;;14.90;14.17;;;18.10;99.90;;;;;;4914478;29;20517;-70
2022/08/02 03:33:33;;;;;;;15.10;14.30;;;18.10;99.90;;;;;;4914728;29;20446;-70
2022/08/02 03:36:04;;;;;;;15.53;14.83;;;18.10;99.90;;;;;;4914731;29;20467;-69
2022/08/02 03:38:33;;;;;;;15.93;14.97;;;18.10;99.90;;;;;;4914846;29;20446;-70
2022/08/02 03:41:02;;;;;;;15.53;14.63;;;18.10;99.90;;;;;;4914819;29;20455;-71
2022/08/02 03:43:29;;;;;;;17.03;15.90;;;18.10;99.90;;;;;;4914267;29;20482;-70
2022/08/02 03:45:56;;;;;;;16.90;16.00;;;18.00;99.90;;;;;;4914505;29;20465;-70
2022/08/02 03:48:23;;;;;;;16.87;15.77;;;18.00;99.90;;;;;;4914468;29;20517;-70
2022/08/02 03:50:52;;;;;;;16.80;15.80;;;18.00;99.90;;;;;;4914378;29;20544;-69
2022/08/02 03:53:20;;;;;;;18.37;16.77;;;18.00;99.90;;;;;;4914499;29;20446;-70
2022/08/02 03:55:47;;;;;;;17.90;16.70;;;17.90;99.90;;;;;;4914036;29;20504;-70
2022/08/02 03:58:18;;;;;;;17.10;16.20;;;17.90;99.90;;;;;;4914588;29;20589;-70
2022/08/02 04:00:45;;;;;;;16.70;15.80;;;17.90;99.90;;;;;;4914328;29;20490;-70
2022/08/02 04:03:12;;;;;;;17.00;16.00;;;17.90;99.90;;;;;;4914405;29;20497;-70
2022/08/02 04:05:39;;;;;;;16.10;15.20;;;17.90;99.90;;;;;;4914331;29;20834;-70
2022/08/02 04:08:07;;;;;;;16.83;16.03;;;17.90;99.90;;;;;;4914168;29;20458;-70
2022/08/02 04:11:29;;;;;;;15.90;15.10;;;17.90;99.90;;;;;;4914152;29;20454;-70
2022/08/02 04:13:22;;;;;;;15.97;14.97;;;17.90;99.90;;;;;;4914006;29;20453;-70
2022/08/02 04:15:53;;;;;;;17.33;15.87;;;17.90;99.90;;;;;;4913403;29;20478;-70
2022/08/02 04:18:25;;;;;;;17.03;16.03;;;17.90;99.90;;;;;;4916423;29;20466;-70
2022/08/02 04:20:54;;;;;;;16.63;15.63;;;18.00;99.90;;;;;;4918277;29;20457;-70
2022/08/02 04:23:25;;;;;;;16.87;15.93;;;18.00;99.90;;;;;;4917852;29;20494;-69
2022/08/02 04:25:53;;;;;;;16.20;15.40;;;18.00;99.90;;;;;;4912137;29;20482;-70
2022/08/02 04:28:20;;;;;;;17.03;15.40;;;18.10;99.90;;;;;;4907243;29;20894;-70
2022/08/02 04:30:49;;;;;;;15.67;14.67;;;18.10;99.90;;;;;;4898740;29;20455;-70
2022/08/02 04:33:16;;;;;;;18.10;16.57;;;18.10;99.90;;;;;;4898874;29;20451;-70
2022/08/02 04:35:43;;;;;;;17.57;16.57;;;18.10;99.90;;;;;;4899076;29;20462;-70
2022/08/02 04:38:12;;;;;;;16.50;15.60;;;18.10;99.90;;;;;;4898940;29;20459;-70
2022/08/02 04:40:40;;;;;;;16.87;15.87;;;18.20;99.90;;;;;;4898958;29;20463;-70
2022/08/02 04:43:07;;;;;;;15.97;15.07;;;18.20;99.90;;;;;;4898820;29;20462;-69
2022/08/02 04:45:35;;;;;;;16.93;15.80;;;18.20;99.90;;;;;;4898924;29;20455;-70
2022/08/02 04:48:01;;;;;;;16.73;15.60;;;18.30;99.90;;;;;;4898518;29;20451;-70
2022/08/02 04:50:28;;;;;;;15.77;14.97;;;18.40;99.90;;;;;;4898717;29;20502;-70
2022/08/02 04:52:55;;;;;;;16.73;15.83;;;18.70;99.90;;;;;;4898926;29;20466;-70
2022/08/02 04:55:27;;;;;;;14.33;13.73;;;18.90;99.90;;;;;;4898240;29;20973;-70
2022/08/02 04:57:55;;;;;;;15.30;14.43;;;19.10;99.90;;;;;;4898692;29;20807;-71
2022/08/02 05:00:22;;;;;;;14.70;14.00;;;19.20;99.90;;;;;;4898622;29;20451;-69
2022/08/02 05:02:49;;;;;;;16.33;14.97;;;19.30;99.90;;;;;;4898718;29;20478;-69
2022/08/02 05:05:16;;;;;;;14.90;14.20;;;19.50;99.90;;;;;;4898157;29;20566;-70
2022/08/02 05:07:43;;;;;;;15.00;14.17;;;19.70;99.90;;;;;;4898416;29;20451;-69
2022/08/02 05:10:10;;;;;;;15.73;14.93;;;20.00;99.90;;;;;;4898459;29;20447;-70
2022/08/02 05:12:37;;;;;;;16.47;15.40;;;20.20;99.90;;;;;;4898308;29;20455;-71
2022/08/02 05:15:07;;;;;;;15.30;14.60;;;20.40;99.90;;;;;;4898031;29;20479;-71
2022/08/02 05:17:34;;;;;;;16.43;15.33;;;20.40;99.90;;;;;;4897837;29;20482;-70
2022/08/02 05:20:01;;;;;;;15.50;14.60;;;20.20;99.90;;;;;;4898017;29;20455;-69
2022/08/02 05:22:28;;;;;;;16.27;14.97;;;20.20;99.90;;;;;;4898453;29;20473;-70
2022/08/02 05:24:54;;;;;;;15.73;14.73;;;20.30;99.90;;;;;;4898141;29;20510;-71
2022/08/02 05:27:21;;;;;;;17.23;16.13;;;20.40;99.90;;;;;;4901813;29;20475;-70
2022/08/02 05:29:48;;;;;;;14.83;14.03;;;20.40;99.90;;;;;;4903032;29;20538;-70
2022/08/02 05:32:16;;;;;;;15.50;14.80;;;20.50;99.90;;;;;;4898018;29;20475;-69
2022/08/02 05:35:32;;;;;;;14.70;14.10;;;20.70;99.90;;;;;;4898072;29;20538;-71
2022/08/02 05:37:58;;;;;;;15.23;14.53;;;21.10;99.90;;;;;;4872846;29;20841;-71
2022/08/02 05:40:25;;;;;;;13.90;13.30;;;21.20;99.90;;;;;;4888604;29;20450;-70
2022/08/02 05:42:52;;;;;;;15.73;14.93;;;21.20;99.90;;;;;;4885978;29;20459;-71
2022/08/02 05:45:19;;;;;;;14.73;14.07;;;21.40;99.90;;;;;;4878600;29;20880;-71
2022/08/02 05:47:47;;;;;;;16.70;16.00;;;21.50;99.90;;;;;;4894843;29;20451;-71
2022/08/02 05:50:13;;;;;;;15.57;14.87;;;21.20;99.90;;;;;;4897639;29;20912;-71
2022/08/02 05:52:45;;;;;;;12.90;12.17;;;21.00;99.90;;;;;;4897472;29;20459;-71
2022/08/02 05:55:16;;;;;;;14.50;13.80;;;21.30;99.90;;;;;;4889591;29;20548;-71
2022/08/02 05:57:51;;;;;;;14.47;13.77;;;21.60;99.90;;;;;;4878705;29;20876;-71
2022/08/02 06:00:18;;;;;;;14.93;14.33;;;21.90;99.90;;;;;;4878474;29;20908;-70
2022/08/02 06:03:15;;;;;;;14.57;13.87;;;22.10;99.90;;;;;;4878428;29;20468;-71
2022/08/02 06:05:48;;;;;;;15.50;14.80;;;22.80;99.90;;;;;;4878790;29;20480;-71
2022/08/02 06:08:14;;;;;;;14.77;13.87;;;23.20;99.90;;;;;;4878353;29;20475;-71
2022/08/02 06:10:42;;;;;;;14.90;14.10;;;23.20;99.90;;;;;;4878379;29;20465;-72
2022/08/02 06:13:11;;;;;;;13.60;13.10;;;23.10;99.90;;;;;;4892988;29;20455;-72
2022/08/02 06:15:39;;;;;;;15.20;14.60;;;23.20;99.90;;;;;;4896540;29;20475;-71
2022/08/02 06:18:08;;;;;;;14.33;13.57;;;22.90;99.90;;;;;;4896685;29;20467;-72
2022/08/02 06:20:36;;;;;;;15.03;14.20;;;23.10;99.90;;;;;;4896704;29;20450;-72
2022/08/02 06:23:04;;;;;;;14.07;13.27;;;23.10;99.90;;;;;;4896744;29;20451;-75
2022/08/02 06:25:32;;;;;;;15.63;14.47;;;23.10;99.90;;;;;;4896590;29;20513;-75
2022/08/02 06:28:00;;;;;;;14.63;13.83;;;22.90;99.90;;;;;;4896613;29;20459;-71
2022/08/02 06:30:27;;;;;;;14.53;13.83;;;22.90;99.90;;;;;;4893471;29;20518;-71
2022/08/02 06:32:54;;;;;;;13.90;13.03;;;23.10;99.90;;;;;;4905910;29;20867;-71
2022/08/02 06:35:25;;;;;;;15.73;14.47;;;23.50;99.90;;;;;;4915813;29;20809;-70
2022/08/02 06:37:56;;;;;;;15.10;14.17;;;24.10;99.90;;;;;;4915431;29;20450;-70
2022/08/02 06:40:27;;;;;;;15.80;14.80;;;24.20;99.90;;;;;;4914452;29;20920;-71
2022/08/02 06:43:05;;;;;;;14.57;13.67;;;24.10;99.90;;;;;;4915206;29;21017;-72
2022/08/02 06:45:32;;;;;;;14.87;14.07;;;24.10;99.90;;;;;;4915045;29;20497;-71
2022/08/02 06:47:59;;;;;;;14.50;13.90;;;24.00;99.90;;;;;;4915404;29;20880;-71
2022/08/02 06:50:27;;;;;;;13.87;13.10;;;24.20;99.90;;;;;;4915577;29;20466;-71
2022/08/02 06:52:54;;;;;;;14.10;13.50;;;24.60;99.90;;;;;;4915522;29;20462;-71
2022/08/02 06:55:21;;;;;;;13.97;13.37;;;24.80;99.90;;;;;;4915103;29;20454;-71
2022/08/02 06:57:48;;;;;;;14.03;12.83;;;25.00;99.90;;;;;;4911724;29;20485;-75
2022/08/02 07:00:15;;;;;;;15.73;14.73;;;25.10;99.90;;;;;;4914774;29;20462;-75
2022/08/02 07:02:42;;;;;;;13.90;13.10;;;25.30;99.90;;;;;;4915298;29;20462;-77
2022/08/02 07:05:09;;;;;;;14.00;13.40;;;25.60;99.90;;;;;;4914958;29;20494;-76
2022/08/02 07:07:37;;;;;;;13.43;12.60;;;26.10;99.90;;;;;;4914700;29;20458;-75
2022/08/02 07:10:05;;;;;;;15.03;13.97;;;26.30;99.90;;;;;;4914396;29;20477;-75
2022/08/02 07:12:33;;;;;;;13.50;12.90;;;26.40;99.90;;;;;;4915092;29;20465;-73
2022/08/02 07:15:02;;;;;;;13.97;13.17;;;26.90;99.90;;;;;;4915055;29;20466;-74
2022/08/02 07:17:29;;;;;;;13.70;12.90;;;27.20;99.90;;;;;;4912965;29;20513;-74
2022/08/02 07:19:56;;;;;;;14.60;13.63;;;27.30;99.90;;;;;;4915019;29;20870;-76
2022/08/02 07:22:23;;;;;;;14.80;14.20;;;27.30;99.90;;;;;;4915009;29;20485;-75
2022/08/02 07:24:51;;;;;;;14.90;14.10;;;28.00;99.60;;;;;;4914536;29;20490;-76
2022/08/02 07:27:18;;;;;;;13.87;13.30;;;28.60;97.60;;;;;;4914765;29;20485;-74
2022/08/02 07:29:45;;;;;;;12.37;11.87;;;29.40;95.90;;;;;;4914498;29;20462;-74
2022/08/02 07:32:12;;;;;;;15.43;14.33;;;29.80;94.80;;;;;;4914941;29;20458;-75
2022/08/02 07:34:38;;;;;;;14.83;13.83;;;30.00;93.90;;;;;;4914500;29;20454;-75
2022/08/02 07:37:05;;;;;;;15.30;14.40;;;30.00;93.90;;;;;;4914287;29;20454;-75
2022/08/02 07:39:32;;;;;;;15.73;14.53;;;30.20;93.60;;;;;;4914363;29;20517;-76
2022/08/02 07:42:00;;;;;;;16.13;15.10;;;30.20;93.60;;;;;;4914410;29;20956;-75
2022/08/02 07:44:30;;;;;;;15.73;15.00;;;30.40;92.90;;;;;;4914414;29;20494;-75
2022/08/02 07:46:57;;;;;;;15.53;14.70;;;30.40;92.30;;;;;;4914666;29;20458;-74
2022/08/02 07:49:24;;;;;;;15.73;14.93;;;29.80;92.80;;;;;;4914146;29;20476;-75
2022/08/02 07:51:50;;;;;;;15.30;14.50;;;29.50;93.60;;;;;;4914244;29;20461;-75
2022/08/02 07:54:17;;;;;;;16.00;15.20;;;30.00;93.10;;;;;;4914278;29;20454;-75
2022/08/02 07:56:44;;;;;;;16.63;15.40;;;30.40;91.90;;;;;;4914576;29;20485;-75
2022/08/02 07:59:12;;;;;;;15.80;15.00;;;30.20;91.70;;;;;;4914562;29;20458;-75
2022/08/02 08:01:39;;;;;;;16.40;15.70;;;30.50;91.90;;;;;;4912365;29;20450;-75
2022/08/02 08:04:05;;;;;;;17.00;16.00;;;31.10;91.10;;;;;;4884722;29;20454;-75
2022/08/02 08:06:32;;;;;;;15.40;14.80;;;31.80;89.60;;;;;;4891185;29;20447;-75
2022/08/02 08:09:00;;;;;;;16.20;15.10;;;32.40;87.60;;;;;;4893924;29;20477;-75
2022/08/02 08:11:26;;;;;;;15.90;14.90;;;32.90;85.10;;;;;;4895415;29;20819;-76
2022/08/02 08:13:53;;;;;;;16.43;15.73;;;32.60;85.30;;;;;;4895068;29;20463;-75
2022/08/02 08:16:21;;;;;;;15.97;15.07;;;33.00;83.60;;;;;;4894528;29;20863;-75
2022/08/02 08:18:48;;;;;;;15.80;14.90;;;33.10;82.30;;;;;;4894814;29;20455;-75
2022/08/02 08:21:14;;;;;;;16.13;15.23;;;32.80;82.10;;;;;;4895073;29;20459;-75
2022/08/02 08:23:41;;;;;;;15.97;15.17;;;32.50;83.30;;;;;;4895239;29;20460;-75
2022/08/02 08:26:08;;;;;;;16.70;15.70;;;32.60;83.60;;;;;;4894939;29;20495;-75
2022/08/02 08:28:35;;;;;;;17.10;16.40;;;32.60;81.30;;;;;;4894932;29;20463;-75
2022/08/02 08:31:02;;;;;;;17.00;16.20;;;31.90;84.20;;;;;;4894941;29;20487;-75
2022/08/02 08:33:30;;;;;;;16.57;15.43;;;32.10;83.00;;;;;;4895003;29;20455;-75
2022/08/02 08:35:57;;;;;;;16.83;15.93;;;32.50;82.20;;;;;;4895162;29;20452;-75
2022/08/02 08:38:23;;;;;;;17.00;16.10;;;32.70;81.40;;;;;;4894932;29;20523;-75
2022/08/02 08:40:51;;;;;;;16.17;15.40;;;33.30;79.20;;;;;;4894920;29;20474;-75
2022/08/02 08:43:18;;;;;;;16.77;15.77;;;32.70;80.70;;;;;;4894873;29;20467;-76
2022/08/02 08:45:45;;;;;;;15.93;15.10;;;32.90;79.80;;;;;;4894701;29;20495;-74
2022/08/02 08:48:17;;;;;;;17.40;16.40;;;33.40;77.60;;;;;;4894937;29;20463;-75
2022/08/02 08:50:50;;;;;;;16.53;15.83;;;34.40;74.60;;;;;;4894721;29;20456;-76
2022/08/02 08:53:17;;;;;;;17.10;16.27;;;35.10;71.80;;;;;;4894650;29;20550;-75
2022/08/02 08:55:45;;;;;;;17.87;16.87;;;35.40;70.50;;;;;;4894671;29;20448;-75
2022/08/02 08:58:12;;;;;;;17.90;17.10;;;35.70;68.50;;;;;;4895029;29;20467;-75
2022/08/02 09:00:41;;;;;;;17.73;16.93;;;35.80;66.30;;;;;;4894815;29;20466;-75
2022/08/02 09:03:08;;;;;;;17.57;16.67;;;35.60;66.60;;;;;;4894679;29;20539;-75
2022/08/02 09:05:35;;;;;;;17.00;16.30;;;35.50;66.90;;;;;;4897730;29;20487;-75
2022/08/02 09:08:04;;;;;;;17.80;16.90;;;35.60;65.60;;;;;;4897861;29;20556;-75
2022/08/02 09:10:33;;;;;;;17.73;16.83;;;35.30;66.20;;;;;;4897564;29;20466;-75
2022/08/02 09:13:08;;;;;;;17.37;16.53;;;35.80;64.50;;;;;;4897591;29;20470;-75
2022/08/02 09:15:35;;;;;;;17.97;17.10;;;35.20;65.20;;;;;;4897483;29;21105;-76
2022/08/02 09:18:03;;;;;;;18.37;17.47;;;36.10;62.20;;;;;;4897480;29;20465;-75
2022/08/02 09:20:29;;;;;;;17.83;17.03;;;37.00;59.60;;;;;;4897763;29;20841;-75
2022/08/02 09:23:07;;;;;;;18.73;17.77;;;37.60;57.80;;;;;;4898006;29;20603;-75
2022/08/02 09:25:34;;;;;;;17.63;16.93;;;36.70;58.40;;;;;;4897432;29;20531;-75
2022/08/02 09:28:04;;;;;;;18.70;17.70;;;36.50;58.40;;;;;;4897475;29;20458;-75
2022/08/02 09:30:31;;;;;;;18.17;17.13;;;36.50;58.90;;;;;;4897300;29;20467;-76
2022/08/02 09:32:57;;;;;;;18.10;17.20;;;37.10;58.20;;;;;;4897896;29;20877;-76
2022/08/02 09:35:36;;;;;;;18.60;17.53;;;37.60;57.80;;;;;;4897899;29;20783;-75
2022/08/02 09:38:11;;;;;;;17.07;16.27;;;37.00;57.80;;;;;;4897628;29;20589;-75
2022/08/02 09:40:39;;;;;;;19.17;18.07;;;36.50;58.70;;;;;;4897598;29;20508;-74
2022/08/02 09:43:05;;;;;;;17.37;16.33;;;37.30;57.50;;;;;;4897491;29;20466;-74
2022/08/02 09:45:34;;;;;;;17.90;16.90;;;38.00;56.00;;;;;;4897335;29;20783;-74
2022/08/02 09:48:01;;;;;;;17.10;16.40;;;37.90;54.90;;;;;;4897563;29;20455;-74
2022/08/02 09:50:28;;;;;;;17.23;16.23;;;37.10;56.20;;;;;;4897708;29;20641;-74
2022/08/02 09:52:55;;;;;;;17.80;17.00;;;36.60;55.90;;;;;;4897663;29;20781;-74
2022/08/02 09:55:24;;;;;;;17.50;16.70;;;36.10;56.70;;;;;;4897288;29;20871;-74
2022/08/02 09:57:51;;;;;;;17.47;16.67;;;35.50;57.70;;;;;;4897205;29;20551;-74
2022/08/02 10:00:18;;;;;;;16.60;15.90;;;36.20;56.90;;;;;;4896842;29;21204;-74
2022/08/02 10:03:12;;;;;;;16.90;16.13;;;35.90;57.00;;;;;;4895039;29;20464;-74
2022/08/02 10:05:49;;;;;;;16.73;15.83;;;35.80;57.10;;;;;;4872809;29;20491;-74
2022/08/02 10:08:16;;;;;;;17.30;16.60;;;36.40;55.60;;;;;;4896710;29;20463;-74
2022/08/02 10:10:45;;;;;;;17.47;16.50;;;36.20;56.20;;;;;;4897029;29;20467;-75
2022/08/02 10:13:12;;;;;;;18.27;17.13;;;37.70;54.00;;;;;;4896887;29;20451;-75
2022/08/02 10:15:39;;;;;;;19.23;18.00;;;37.40;52.70;;;;;;4896460;29;20471;-75
2022/08/02 10:18:06;;;;;;;19.30;18.50;;;37.60;52.70;;;;;;4896801;29;20463;-75
2022/08/02 10:20:40;;;;;;;18.07;17.10;;;37.60;53.00;;;;;;4896401;29;20889;-75
2022/08/02 10:23:10;;;;;;;16.70;16.00;;;37.40;53.10;;;;;;4896660;29;20455;-75
2022/08/02 10:25:37;;;;;;;16.53;15.83;;;37.00;53.40;;;;;;4896420;29;20856;-75
2022/08/02 10:28:07;;;;;;;16.93;16.20;;;36.30;54.10;;;;;;4896441;29;20953;-74
2022/08/02 10:30:37;;;;;;;18.60;17.60;;;36.00;55.00;;;;;;4896496;29;20538;-74
2022/08/02 10:33:07;;;;;;;17.97;17.07;;;36.50;53.90;;;;;;4896483;29;20515;-75
2022/08/02 10:35:37;;;;;;;18.10;17.30;;;36.60;54.00;;;;;;4896438;29;20687;-75
2022/08/02 10:38:07;;;;;;;16.63;15.90;;;37.20;54.00;;;;;;4896417;29;20464;-75
2022/08/02 10:40:44;;;;;;;17.43;16.73;;;37.90;52.00;;;;;;4896476;29;20448;-75
2022/08/02 10:43:13;;;;;;;18.33;17.43;;;38.50;51.20;;;;;;4896637;29;20466;-75
2022/08/02 10:45:40;;;;;;;18.27;17.47;;;38.60;50.10;;;;;;4896262;29;20586;-74
2022/08/02 10:48:10;;;;;;;18.17;17.10;;;38.00;50.00;;;;;;4896028;29;20874;-75
2022/08/02 10:50:55;;;;;;;16.50;15.80;;;37.80;50.60;;;;;;4896258;29;20459;-75
2022/08/02 10:53:27;;;;;;;17.20;16.50;;;37.50;50.50;;;;;;4896180;29;20461;-75
2022/08/02 10:55:55;;;;;;;17.27;16.57;;;37.90;50.50;;;;;;4896303;29;20451;-75
2022/08/02 10:58:26;;;;;;;16.10;15.50;;;38.10;49.30;;;;;;4896102;29;20463;-75
2022/08/02 11:00:53;;;;;;;16.57;15.90;;;37.80;50.00;;;;;;4896010;29;20834;-74
2022/08/02 11:03:41;;;;;;;17.43;16.53;;;37.70;49.30;;;;;;4895933;29;20454;-74
2022/08/02 11:06:09;;;;;;;17.17;16.47;;;36.50;51.40;;;;;;4892667;29;20491;-75
2022/08/02 11:08:37;;;;;;;18.33;17.53;;;37.00;50.50;;;;;;4895921;29;20470;-75
2022/08/02 11:11:17;;;;;;;16.30;15.60;;;36.80;51.60;;;;;;4895932;29;20469;-75
2022/08/02 11:14:07;;;;;;;17.80;17.00;;;35.70;53.30;;;;;;4895931;29;20451;-74
2022/08/02 11:17:10;;;;;;;18.10;17.20;;;35.00;55.10;;;;;;4895497;29;20572;-75
2022/08/02 11:20:10;;;;;;;16.93;16.23;;;35.60;54.10;;;;;;4895734;29;20463;-74
2022/08/02 11:22:38;;;;;;;17.30;16.50;;;35.20;54.20;;;;;;4895728;29;20447;-75
2022/08/02 11:25:32;;;;;;;18.33;17.40;;;35.50;53.60;;;;;;4895676;29;20451;-75
2022/08/02 11:28:07;;;;;;;17.40;16.60;;;35.40;54.00;;;;;;4895738;29;20451;-74
2022/08/02 11:30:35;;;;;;;15.90;15.20;;;35.30;53.80;;;;;;4895417;29;20455;-74
2022/08/02 11:33:03;;;;;;;16.53;15.70;;;35.10;54.10;;;;;;4895482;29;20941;-74
2022/08/02 11:35:34;;;;;;;17.77;17.07;;;35.10;54.40;;;;;;4895418;29;20478;-74
2022/08/02 11:38:14;;;;;;;17.33;16.53;;;36.00;53.50;;;;;;4895420;29;20511;-74
2022/08/02 11:40:41;;;;;;;17.80;16.97;;;37.70;50.30;;;;;;4895698;29;20882;-74
2022/08/02 11:43:16;;;;;;;17.90;17.10;;;38.70;48.30;;;;;;4895428;29;20554;-75
2022/08/02 11:45:45;;;;;;;17.87;17.07;;;38.10;48.00;;;;;;4895425;29;20498;-74
2022/08/02 11:48:11;;;;;;;16.73;15.93;;;37.80;48.30;;;;;;4895538;29;20455;-74
2022/08/02 11:50:38;;;;;;;18.17;17.27;;;37.60;48.70;;;;;;4895356;29;20510;-75
2022/08/02 11:53:13;;;;;;;17.20;16.37;;;38.20;48.50;;;;;;4895163;29;20490;-73
2022/08/02 11:55:40;;;;;;;18.53;17.63;;;38.60;47.40;;;;;;4895535;29;20478;-74
2022/08/02 11:58:08;;;;;;;17.53;16.90;;;38.60;47.30;;;;;;4895059;29;20511;-74
2022/08/02 12:00:35;;;;;;;17.20;16.40;;;36.80;49.60;;;;;;4895152;29;20459;-74
2022/08/02 12:03:03;;;;;;;18.00;16.80;;;37.10;50.20;;;;;;4895128;29;20455;-75
2022/08/02 12:05:31;;;;;;;17.77;16.97;;;37.50;48.80;;;;;;4895049;29;20495;-74
2022/08/02 12:07:58;;;;;;;17.33;16.53;;;37.90;49.00;;;;;;4895369;29;20492;-75
2022/08/02 12:10:25;;;;;;;19.00;18.20;;;38.20;48.30;;;;;;4895366;29;20460;-74
2022/08/02 12:12:53;;;;;;;16.73;16.00;;;38.40;47.70;;;;;;4895071;29;20767;-74
2022/08/02 12:15:32;;;;;;;18.43;17.30;;;39.30;46.60;;;;;;4894888;29;20515;-74
2022/08/02 12:20:45;;;;;;;18.30;17.40;;;38.00;48.10;;;;;;4895131;29;20503;-74
2022/08/02 12:23:11;;;;;;;18.23;17.53;;;37.90;48.70;;;;;;4895120;29;20459;-74
2022/08/02 12:25:38;;;;;;;18.07;17.10;;;38.90;46.80;;;;;;4895174;29;20866;-74
2022/08/02 12:28:16;;;;;;;19.00;17.93;;;39.20;46.00;;;;;;4894876;29;20463;-75
2022/08/02 12:30:54;;;;;;;16.73;16.03;;;39.20;45.30;;;;;;4894831;29;20455;-75
2022/08/02 12:33:21;;;;;;;18.87;17.97;;;39.40;44.70;;;;;;4894912;29;20471;-75
2022/08/02 12:35:50;;;;;;;18.47;17.77;;;38.30;45.90;;;;;;4894910;29;20510;-74
2022/08/02 12:38:16;;;;;;;17.50;16.80;;;37.40;47.30;;;;;;4895500;29;20466;-74
2022/08/02 12:40:44;;;;;;;17.57;16.70;;;37.90;46.20;;;;;;4898704;29;20467;-74
2022/08/02 12:43:18;;;;;;;18.17;17.47;;;37.20;47.50;;;;;;4898759;29;20478;-74
2022/08/02 12:45:48;;;;;;;18.43;17.73;;;37.80;46.90;;;;;;4898465;29;20498;-74
2022/08/02 12:48:16;;;;;;;16.93;16.23;;;38.90;45.00;;;;;;4896522;29;20849;-75
2022/08/02 12:50:43;;;;;;;18.50;17.70;;;39.50;44.80;;;;;;4898899;29;20507;-75
2022/08/02 12:53:13;;;;;;;17.70;17.00;;;39.10;44.40;;;;;;4898605;29;20980;-74
2022/08/02 12:55:51;;;;;;;16.87;16.17;;;37.50;46.10;;;;;;4898582;29;20455;-74
2022/08/02 12:58:18;;;;;;;18.10;17.40;;;35.70;48.20;;;;;;4898331;29;20561;-74
2022/08/02 13:00:53;;;;;;;16.90;16.20;;;34.50;50.30;;;;;;4898028;29;20835;-73
2022/08/02 13:03:20;;;;;;;17.50;16.60;;;32.80;53.10;;;;;;4898044;29;20458;-73
2022/08/02 13:05:47;;;;;;;17.50;16.37;;;32.10;55.20;;;;;;4897165;29;20503;-74
2022/08/02 13:08:15;;;;;;;17.93;16.97;;;31.70;55.70;;;;;;4897346;29;20463;-73
2022/08/02 13:10:43;;;;;;;16.57;15.87;;;31.60;56.50;;;;;;4898577;29;20868;-74
2022/08/02 13:13:10;;;;;;;15.93;15.33;;;31.60;56.30;;;;;;4898339;29;20451;-74
2022/08/02 13:15:37;;;;;;;19.60;18.50;;;31.70;56.80;;;;;;4897921;29;20479;-74
2022/08/02 13:18:04;;;;;;;18.50;17.40;;;31.80;56.50;;;;;;4898211;29;20461;-74
2022/08/02 13:20:31;;;;;;;16.90;16.10;;;31.90;56.00;;;;;;4898065;29;20459;-74
2022/08/02 13:22:57;;;;;;;16.67;15.87;;;31.80;57.50;;;;;;4898197;29;20458;-75
2022/08/02 13:25:25;;;;;;;15.70;15.10;;;32.00;56.30;;;;;;4897997;29;20451;-75
2022/08/02 13:27:52;;;;;;;16.20;15.40;;;32.10;57.00;;;;;;4897709;29;20491;-74
2022/08/02 13:30:19;;;;;;;17.03;16.13;;;33.50;55.40;;;;;;4897813;29;20463;-74
2022/08/02 13:32:46;;;;;;;17.00;16.00;;;34.90;52.10;;;;;;4897659;29;20493;-74
2022/08/02 13:35:13;;;;;;;16.90;16.00;;;35.70;50.90;;;;;;4897841;29;20818;-75
2022/08/02 13:37:41;;;;;;;17.53;16.80;;;36.40;48.70;;;;;;4898118;29;20459;-74
2022/08/02 13:40:09;;;;;;;17.03;16.23;;;35.80;50.00;;;;;;4897718;29;20479;-75
2022/08/02 13:42:37;;;;;;;16.90;16.20;;;35.00;51.50;;;;;;4897858;29;20459;-75
2022/08/02 13:45:04;;;;;;;17.47;16.77;;;35.30;51.70;;;;;;4897534;29;20470;-74
2022/08/02 13:47:31;;;;;;;17.50;16.70;;;36.00;51.10;;;;;;4897563;29;20859;-74
2022/08/02 13:49:58;;;;;;;16.80;16.20;;;35.10;51.90;;;;;;4897463;29;20459;-74
2022/08/02 13:52:24;;;;;;;16.00;15.10;;;33.30;54.20;;;;;;4897824;29;20455;-74
2022/08/02 13:54:51;;;;;;;16.87;16.07;;;32.80;56.00;;;;;;4897548;29;20462;-74
2022/08/02 13:57:18;;;;;;;16.63;15.83;;;32.70;55.20;;;;;;4897481;29;20522;-74
2022/08/02 13:59:46;;;;;;;15.43;14.77;;;32.90;54.90;;;;;;4897303;29;20455;-74
2022/08/02 14:02:12;;;;;;;15.73;14.93;;;33.80;53.10;;;;;;4897581;29;20464;-74
2022/08/02 14:04:39;;;;;;;16.47;15.87;;;34.70;51.80;;;;;;4897408;29;20451;-75
2022/08/02 14:07:06;;;;;;;17.40;16.53;;;35.00;50.20;;;;;;4897234;29;20490;-74
2022/08/02 14:09:34;;;;;;;16.00;15.30;;;34.40;50.40;;;;;;4897238;29;20993;-75
2022/08/02 14:12:01;;;;;;;16.30;15.60;;;33.60;51.50;;;;;;4897214;29;20490;-74
2022/08/02 14:14:28;;;;;;;16.13;15.10;;;33.60;52.10;;;;;;4897403;29;20463;-74
2022/08/02 14:16:56;;;;;;;15.80;15.10;;;33.70;51.60;;;;;;4897084;29;20483;-75
2022/08/02 14:19:23;;;;;;;16.80;15.90;;;33.90;51.40;;;;;;4897131;29;20459;-75
2022/08/02 14:21:51;;;;;;;16.33;15.63;;;34.00;50.80;;;;;;4897059;29;20584;-74
2022/08/02 14:24:20;;;;;;;17.53;16.80;;;33.70;50.30;;;;;;4896993;29;20471;-74
2022/08/02 14:26:48;;;;;;;16.10;15.50;;;33.10;51.20;;;;;;4896866;29;20490;-74
2022/08/02 14:29:15;;;;;;;15.90;15.30;;;33.00;51.70;;;;;;4897052;29;20455;-73
2022/08/02 14:31:42;;;;;;;16.27;15.37;;;33.00;52.50;;;;;;4897108;29;20970;-74
2022/08/02 14:34:11;;;;;;;16.20;15.50;;;33.20;52.50;;;;;;4897100;29;20463;-75
2022/08/02 14:36:37;;;;;;;16.70;16.10;;;33.80;51.10;;;;;;4896872;29;20458;-75
2022/08/02 14:39:04;;;;;;;16.97;16.13;;;34.00;51.10;;;;;;4896865;29;20455;-74
2022/08/02 14:41:32;;;;;;;17.17;16.40;;;35.00;49.30;;;;;;4896435;29;20486;-74
2022/08/02 14:44:06;;;;;;;16.50;15.80;;;35.40;48.10;;;;;;4896864;29;20459;-74
2022/08/02 14:46:34;;;;;;;15.90;15.30;;;35.60;47.30;;;;;;4896515;29;21037;-75
2022/08/02 14:49:02;;;;;;;16.67;15.77;;;35.70;46.80;;;;;;4896463;29;20459;-75
2022/08/02 14:51:31;;;;;;;15.50;14.90;;;35.70;46.10;;;;;;4896527;29;20463;-74
2022/08/02 14:53:58;;;;;;;15.93;15.33;;;35.60;46.80;;;;;;4896675;29;20459;-74
2022/08/02 14:56:25;;;;;;;15.93;15.33;;;35.70;46.50;;;;;;4896579;29;20478;-75
2022/08/02 14:58:52;;;;;;;14.93;14.23;;;35.20;47.50;;;;;;4896303;29;20455;-75
2022/08/02 15:01:19;;;;;;;16.40;15.80;;;35.30;46.80;;;;;;4895629;29;20993;-74
2022/08/02 15:03:46;;;;;;;17.10;16.40;;;34.20;47.80;;;;;;4896411;29;20459;-74
2022/08/02 15:06:12;;;;;;;15.77;14.97;;;33.10;49.30;;;;;;4896247;29;20455;-74
2022/08/02 15:08:41;;;;;;;15.90;15.30;;;32.40;50.40;;;;;;4895827;29;20467;-75
2022/08/02 15:11:07;;;;;;;16.47;15.77;;;31.90;51.00;;;;;;4885189;29;20457;-74
2022/08/02 15:13:34;;;;;;;16.00;15.40;;;31.30;51.70;;;;;;4886394;29;20447;-74
2022/08/02 15:16:01;;;;;;;16.30;15.53;;;31.30;52.10;;;;;;4886859;29;20889;-74
2022/08/02 15:18:28;;;;;;;15.50;14.70;;;31.30;52.50;;;;;;4885505;29;20444;-74
2022/08/02 15:20:55;;;;;;;15.80;15.20;;;31.20;52.40;;;;;;4888261;29;20825;-74
2022/08/02 15:23:23;;;;;;;16.13;15.53;;;31.10;53.00;;;;;;4886014;29;20463;-74
2022/08/02 15:25:52;;;;;;;15.60;15.00;;;31.00;53.00;;;;;;4885097;29;20834;-74
2022/08/02 15:28:19;;;;;;;15.40;14.70;;;31.00;53.00;;;;;;4886327;29;20678;-74
2022/08/02 15:30:45;;;;;;;16.33;15.63;;;31.20;53.20;;;;;;4886482;29;20455;-73
2022/08/02 15:33:12;;;;;;;16.03;15.43;;;31.10;52.30;;;;;;4885294;29;20484;-74
2022/08/02 15:35:39;;;;;;;16.43;15.73;;;31.10;52.20;;;;;;4893255;29;20959;-74
2022/08/02 15:38:06;;;;;;;17.20;16.50;;;31.10;52.50;;;;;;4896057;29;20446;-74
2022/08/02 15:40:33;;;;;;;15.80;15.20;;;31.10;52.80;;;;;;4895880;29;20463;-74
2022/08/02 15:43:01;;;;;;;15.10;14.50;;;31.00;52.80;;;;;;4895719;29;20537;-74
2022/08/02 15:45:27;;;;;;;15.73;15.03;;;30.80;52.20;;;;;;4896003;29;20483;-75
2022/08/02 15:47:54;;;;;;;16.10;15.40;;;30.70;53.00;;;;;;4895536;29;20495;-74
2022/08/02 15:50:21;;;;;;;16.60;15.90;;;30.60;52.70;;;;;;4895680;29;20497;-74
2022/08/02 15:52:48;;;;;;;15.47;14.87;;;30.40;53.00;;;;;;4895515;29;20837;-73
2022/08/02 15:55:14;;;;;;;15.97;15.27;;;30.40;52.90;;;;;;4895525;29;20574;-73